Terminal Aerodrome Forecast
Issued by NWS

Home | Current Version | Previous Version | Text Only | Print | Product List | Glossary On
Versions: 1 2 3 4 5 6 7 8 9 10 11 12 13 14 15 16
000
FTUS41 KBOX 120540
TAFFMH
TAF
KFMH 120540Z 1206/1306 06004KT P6SM BKN040 OVC120
     FM121400 15013G24KT P6SM VCSH OVC025
     FM121700 15016G28KT 4SM -RA OVC020
     FM122100 18017G29KT 1 1/2SM BR VCSH OVC015
     FM122300 21013G25KT P6SM OVC020
     FM130300 25009KT P6SM BKN020
     FM130500 26010KT P6SM BKN090=

USA.gov is the U.S. government's official web portal to all federal, state and local government web resources and services.